Time;durP1;ratioP1;P1;durP2;ratioP2;P2;SDS_P1;SDS_P2;PMS_P1;PMS_P2;Temp;Humidity;BMP_temperature;BMP_pressure;BME280_temperature;BME280_humidity;BME280_pressure;Samples;Min_cycle;Max_cycle;Signal;HPM_P1;HPM_P2
2022/12/25 00:01:50;;;;;;;1.90;1.80;;;10.20;1.00;;;;;;5069293;28;20845;-79
2022/12/25 00:04:18;;;;;;;2.03;1.90;;;10.10;1.00;;;;;;5071004;28;20536;-79
2022/12/25 00:06:46;;;;;;;2.50;2.40;;;10.10;1.00;;;;;;5069849;28;20462;-79
2022/12/25 00:09:14;;;;;;;2.43;1.80;;;10.20;1.00;;;;;;5067020;28;20476;-80
2022/12/25 00:11:44;;;;;;;3.40;2.00;;;10.20;1.00;;;;;;5070836;28;20972;-79
2022/12/25 00:14:12;;;;;;;3.10;1.97;;;10.20;1.00;;;;;;5070409;28;20450;-78
2022/12/25 00:16:41;;;;;;;1.93;1.83;;;10.00;1.00;;;;;;5068599;28;21021;-79
2022/12/25 00:19:09;;;;;;;4.60;2.50;;;10.10;1.00;;;;;;5069497;28;20463;-79
2022/12/25 00:21:37;;;;;;;2.03;1.80;;;10.00;1.00;;;;;;5070202;28;20473;-79
2022/12/25 00:24:06;;;;;;;2.57;1.93;;;10.10;1.00;;;;;;5069623;28;20508;-79
2022/12/25 00:26:34;;;;;;;1.80;1.70;;;10.00;1.00;;;;;;5070701;28;20464;-81
2022/12/25 00:29:03;;;;;;;2.73;1.77;;;10.10;1.00;;;;;;5068328;28;20559;-81
2022/12/25 00:31:33;;;;;;;2.10;2.00;;;10.10;1.00;;;;;;5063307;28;20469;-80
2022/12/25 00:34:01;;;;;;;2.10;2.00;;;10.10;1.00;;;;;;5069295;28;20451;-80
2022/12/25 00:36:29;;;;;;;2.40;2.27;;;10.10;1.00;;;;;;5069467;28;20457;-79
2022/12/25 00:39:06;;;;;;;3.43;2.00;;;10.10;1.00;;;;;;5069869;28;20589;-80
2022/12/25 00:44:17;;;;;;;4.80;2.10;;;10.10;1.00;;;;;;5066890;28;20474;-80
2022/12/25 00:46:46;;;;;;;3.60;2.43;;;10.10;1.00;;;;;;5068478;28;20807;-80
2022/12/25 00:49:14;;;;;;;1.57;1.47;;;10.10;1.00;;;;;;5067624;28;21349;-79
2022/12/25 00:51:42;;;;;;;5.13;1.90;;;10.10;1.00;;;;;;5068279;28;20445;-80
2022/12/25 00:54:10;;;;;;;2.10;2.00;;;10.10;1.00;;;;;;5066933;28;20853;-80
2022/12/25 00:56:38;;;;;;;1.90;1.80;;;10.10;1.00;;;;;;5068875;28;20457;-79
2022/12/25 00:59:07;;;;;;;2.20;1.77;;;10.10;1.00;;;;;;5068484;28;20557;-81
2022/12/25 01:01:38;;;;;;;2.00;1.83;;;10.10;1.00;;;;;;5069224;28;20462;-80
2022/12/25 01:04:07;;;;;;;2.30;2.00;;;10.10;1.00;;;;;;5068312;28;20473;-79
2022/12/25 01:06:35;;;;;;;2.60;1.70;;;10.00;1.00;;;;;;5062303;28;20461;-79
2022/12/25 01:11:50;;;;;;;3.43;2.30;;;10.10;1.00;;;;;;5069336;28;20478;-81
2022/12/25 01:14:18;;;;;;;2.40;1.60;;;10.30;1.00;;;;;;5063981;28;20454;-80
2022/12/25 01:16:48;;;;;;;1.90;1.80;;;10.20;1.00;;;;;;5068310;28;20450;-80
2022/12/25 01:19:16;;;;;;;2.23;2.13;;;10.20;1.00;;;;;;5069504;28;20499;-80
2022/12/25 01:21:45;;;;;;;1.93;1.83;;;10.20;1.00;;;;;;5065852;28;20821;-80
2022/12/25 01:24:13;;;;;;;2.00;1.80;;;10.10;1.00;;;;;;5068746;28;20571;-80
2022/12/25 01:26:41;;;;;;;1.90;1.80;;;10.10;1.00;;;;;;5068777;28;20439;-80
2022/12/25 01:29:09;;;;;;;2.40;1.70;;;10.10;1.00;;;;;;5069036;28;20526;-80
2022/12/25 01:31:37;;;;;;;2.53;1.83;;;10.10;1.00;;;;;;5069673;28;20796;-80
2022/12/25 01:34:07;;;;;;;1.83;1.73;;;10.10;1.00;;;;;;5068923;28;20921;-80
2022/12/25 01:36:35;;;;;;;1.80;1.70;;;10.10;1.00;;;;;;5069716;28;20463;-81
2022/12/25 01:39:04;;;;;;;1.83;1.70;;;10.00;1.00;;;;;;5068388;28;20914;-79
2022/12/25 01:41:32;;;;;;;2.00;1.90;;;10.00;1.00;;;;;;5069264;28;20949;-79
2022/12/25 01:44:04;;;;;;;1.80;1.70;;;10.10;1.00;;;;;;5068257;28;20502;-79
2022/12/25 01:46:32;;;;;;;2.17;2.07;;;10.00;1.00;;;;;;5067711;28;20887;-80
2022/12/25 01:49:04;;;;;;;2.20;2.10;;;9.90;1.00;;;;;;5069984;28;21019;-80
2022/12/25 01:51:38;;;;;;;2.20;2.10;;;9.90;1.00;;;;;;5066815;28;20469;-79
2022/12/25 01:54:09;;;;;;;3.27;1.90;;;10.00;1.00;;;;;;5068109;28;20448;-80
2022/12/25 01:56:39;;;;;;;2.30;1.90;;;10.00;1.00;;;;;;5067535;28;20463;-78
2022/12/25 01:59:08;;;;;;;2.67;1.90;;;9.90;1.00;;;;;;5068086;28;20829;-80
2022/12/25 02:01:36;;;;;;;2.23;2.10;;;9.90;1.00;;;;;;5068790;28;21136;-79
2022/12/25 02:04:12;;;;;;;2.20;2.10;;;9.90;1.00;;;;;;5067001;28;20475;-80
2022/12/25 02:06:42;;;;;;;2.20;1.90;;;10.00;1.00;;;;;;5068684;28;21210;-80
2022/12/25 02:09:10;;;;;;;3.33;1.73;;;9.90;1.00;;;;;;5067169;28;20477;-80
2022/12/25 02:11:56;;;;;;;2.20;2.00;;;9.90;1.00;;;;;;5068372;28;20453;-80
2022/12/25 02:14:25;;;;;;;2.23;1.90;;;9.80;1.00;;;;;;5065047;28;20483;-79
2022/12/25 02:17:02;;;;;;;3.67;2.00;;;9.90;1.00;;;;;;5068206;28;20446;-80
2022/12/25 02:19:44;;;;;;;2.97;2.23;;;9.80;1.00;;;;;;5068530;28;20850;-80
2022/12/25 02:22:24;;;;;;;2.23;1.53;;;9.70;1.00;;;;;;5067328;28;20436;-80
2022/12/25 02:25:13;;;;;;;2.87;1.97;;;9.70;1.00;;;;;;5068475;28;20459;-80
2022/12/25 02:27:59;;;;;;;1.80;1.70;;;9.70;1.00;;;;;;5067125;28;20463;-80
2022/12/25 02:30:34;;;;;;;1.90;1.80;;;9.80;1.00;;;;;;5067917;28;20559;-80
2022/12/25 02:35:58;;;;;;;2.23;2.10;;;9.80;1.00;;;;;;5066380;28;20456;-80
2022/12/25 02:38:32;;;;;;;1.80;1.70;;;9.90;1.00;;;;;;5055116;28;20874;-79
2022/12/25 02:41:05;;;;;;;2.60;1.67;;;9.80;1.00;;;;;;5067019;28;21015;-80
2022/12/25 03:11:59;;;;;;;2.20;2.00;;;9.80;1.00;;;;;;5045891;28;20464;-80
2022/12/25 03:17:15;;;;;;;1.87;1.77;;;9.90;1.00;;;;;;5067594;28;20499;-81
2022/12/25 03:28:05;;;;;;;1.97;1.80;;;9.90;1.00;;;;;;5066499;28;20503;-79
2022/12/25 03:33:38;;;;;;;59.37;32.03;;;9.90;1.00;;;;;;5066034;28;20445;-80
2022/12/25 03:36:20;;;;;;;9.30;6.53;;;9.80;1.00;;;;;;5065427;28;20543;-80
2022/12/25 04:37:47;;;;;;;2.00;1.90;;;9.90;1.00;;;;;;5071150;28;21017;-79
2022/12/25 04:40:18;;;;;;;1.97;1.97;;;9.90;1.00;;;;;;5073051;28;20470;-78
2022/12/25 04:42:46;;;;;;;2.80;2.27;;;10.00;1.00;;;;;;5065194;28;20446;-79
2022/12/25 04:45:14;;;;;;;2.10;2.00;;;9.90;1.00;;;;;;5069814;28;20473;-78
2022/12/25 04:47:42;;;;;;;2.23;2.13;;;10.00;1.00;;;;;;5069345;28;20452;-78
2022/12/25 04:50:11;;;;;;;2.13;2.03;;;10.00;1.00;;;;;;5069018;28;20475;-78
2022/12/25 04:52:40;;;;;;;1.80;1.70;;;9.90;1.00;;;;;;5069249;28;21163;-80
2022/12/25 04:55:10;;;;;;;2.10;2.00;;;9.90;1.00;;;;;;5070142;28;20442;-80
2022/12/25 04:57:40;;;;;;;1.80;1.70;;;9.90;1.00;;;;;;5069591;28;20957;-80
2022/12/25 05:00:09;;;;;;;2.47;2.37;;;9.90;1.00;;;;;;5069078;28;20473;-80
2022/12/25 05:02:37;;;;;;;2.80;2.13;;;10.00;1.00;;;;;;5067487;28;20468;-80
2022/12/25 05:05:06;;;;;;;2.60;2.37;;;9.90;1.00;;;;;;5067387;28;20981;-81
2022/12/25 05:07:34;;;;;;;1.90;1.80;;;9.90;1.00;;;;;;5068014;28;20454;-78
2022/12/25 05:10:02;;;;;;;2.13;1.93;;;10.00;1.00;;;;;;5067429;28;20485;-79
2022/12/25 05:12:31;;;;;;;1.90;1.80;;;10.00;1.00;;;;;;5069156;28;21035;-79
2022/12/25 05:15:00;;;;;;;2.07;1.97;;;9.90;1.00;;;;;;5068626;28;20491;-80
2022/12/25 05:17:28;;;;;;;1.90;1.90;;;9.90;1.00;;;;;;5069080;28;20453;-80
2022/12/25 05:19:57;;;;;;;2.10;2.00;;;9.90;1.00;;;;;;5069221;28;20481;-78
2022/12/25 05:22:25;;;;;;;1.63;1.60;;;9.80;1.00;;;;;;5068311;28;20463;-79
2022/12/25 05:24:53;;;;;;;1.90;1.80;;;9.90;1.00;;;;;;5067650;28;20966;-80
2022/12/25 05:27:21;;;;;;;2.00;1.90;;;9.80;1.00;;;;;;5066972;28;20459;-79
2022/12/25 05:29:49;;;;;;;1.70;1.60;;;9.90;1.00;;;;;;5068651;28;20477;-79
2022/12/25 05:32:19;;;;;;;2.10;2.00;;;9.90;1.00;;;;;;5069348;28;20438;-81
2022/12/25 05:34:47;;;;;;;2.03;1.93;;;9.90;1.00;;;;;;5066281;28;20557;-79
2022/12/25 05:37:16;;;;;;;1.80;1.70;;;9.90;1.00;;;;;;5066930;28;21005;-78
2022/12/25 05:39:44;;;;;;;2.00;1.90;;;10.00;1.00;;;;;;5067781;28;20529;-80
2022/12/25 05:42:12;;;;;;;3.30;1.70;;;9.90;1.00;;;;;;5068259;28;20983;-80
2022/12/25 05:44:40;;;;;;;1.80;1.70;;;9.90;1.00;;;;;;5067827;28;20485;-78
2022/12/25 05:47:08;;;;;;;1.80;1.70;;;9.90;1.00;;;;;;5067459;28;20465;-78
2022/12/25 05:49:38;;;;;;;1.87;1.77;;;9.90;1.00;;;;;;5067219;28;20971;-79
2022/12/25 05:52:06;;;;;;;1.93;1.83;;;9.90;1.00;;;;;;5068152;28;20486;-80
2022/12/25 05:54:34;;;;;;;1.70;1.60;;;9.90;1.00;;;;;;5068967;28;20976;-80
2022/12/25 05:57:02;;;;;;;1.93;1.83;;;10.00;1.00;;;;;;5068038;28;20521;-79
2022/12/25 05:59:31;;;;;;;1.80;1.70;;;9.90;1.00;;;;;;5069176;28;20982;-80
2022/12/25 06:02:00;;;;;;;1.70;1.60;;;10.00;1.00;;;;;;5068797;28;20443;-79
2022/12/25 06:04:28;;;;;;;1.70;1.60;;;10.00;1.00;;;;;;5068568;28;21057;-80
2022/12/25 06:06:58;;;;;;;2.50;1.90;;;10.00;1.00;;;;;;5066776;28;20973;-79
2022/12/25 06:09:26;;;;;;;1.73;1.63;;;10.00;1.00;;;;;;5067403;28;20465;-80
2022/12/25 06:11:54;;;;;;;1.83;1.73;;;10.00;1.00;;;;;;5069352;28;20463;-80
2022/12/25 06:14:22;;;;;;;1.60;1.60;;;10.00;1.00;;;;;;5065085;28;20462;-78
2022/12/25 06:16:51;;;;;;;1.87;1.77;;;10.10;1.00;;;;;;5068175;28;20441;-79
2022/12/25 06:19:20;;;;;;;1.40;1.40;;;10.10;1.00;;;;;;5067779;28;20478;-80
2022/12/25 06:21:52;;;;;;;1.80;1.70;;;10.10;1.00;;;;;;5067743;28;20513;-80
2022/12/25 06:24:22;;;;;;;2.40;2.10;;;10.10;1.00;;;;;;5066882;28;20469;-81
2022/12/25 06:26:50;;;;;;;1.80;1.70;;;10.10;1.00;;;;;;5067273;28;20460;-82
2022/12/25 06:29:18;;;;;;;1.70;1.60;;;10.10;1.00;;;;;;5067484;28;20983;-80
2022/12/25 06:31:47;;;;;;;2.00;1.83;;;10.10;1.00;;;;;;5066533;28;20457;-81
2022/12/25 06:34:15;;;;;;;1.80;1.67;;;10.10;1.00;;;;;;5065332;28;20442;-80
2022/12/25 06:36:44;;;;;;;2.27;2.00;;;10.00;1.00;;;;;;5068369;28;20450;-81
2022/12/25 06:39:12;;;;;;;1.80;1.70;;;10.10;1.00;;;;;;5064115;28;20489;-79
2022/12/25 06:41:41;;;;;;;2.20;2.10;;;10.10;1.00;;;;;;5065707;28;20549;-79
2022/12/25 06:44:09;;;;;;;1.93;1.83;;;10.00;1.00;;;;;;5066072;28;20452;-79
2022/12/25 06:46:38;;;;;;;1.80;1.70;;;10.00;1.00;;;;;;5066068;28;20990;-80
2022/12/25 06:49:06;;;;;;;1.80;1.70;;;9.90;1.00;;;;;;5067907;28;20527;-80
2022/12/25 06:51:34;;;;;;;2.10;2.00;;;10.00;1.00;;;;;;5066931;28;20524;-79
2022/12/25 06:54:03;;;;;;;2.00;1.90;;;10.00;1.00;;;;;;5064227;28;20546;-80
2022/12/25 06:56:32;;;;;;;2.00;1.90;;;10.10;1.00;;;;;;5063735;28;20453;-79
2022/12/25 06:59:03;;;;;;;2.00;1.90;;;9.90;1.00;;;;;;5065681;28;20480;-79
2022/12/25 07:01:35;;;;;;;1.93;1.83;;;9.90;1.00;;;;;;5066283;28;20486;-80
2022/12/25 07:04:06;;;;;;;2.40;2.30;;;9.90;1.00;;;;;;5067244;28;20451;-80
2022/12/25 07:06:34;;;;;;;2.40;2.20;;;10.00;1.00;;;;;;5067048;28;20471;-78
2022/12/25 07:09:03;;;;;;;2.30;2.20;;;10.00;1.00;;;;;;5068504;28;20480;-83
2022/12/25 07:11:31;;;;;;;2.10;1.93;;;10.00;1.00;;;;;;5068840;28;20442;-80
2022/12/25 07:13:59;;;;;;;1.80;1.70;;;10.10;1.00;;;;;;5068992;28;20454;-78
2022/12/25 07:16:28;;;;;;;2.10;1.90;;;10.10;1.00;;;;;;5069472;28;20440;-80
2022/12/25 07:18:58;;;;;;;2.00;1.90;;;10.00;1.00;;;;;;5069221;28;20478;-78
2022/12/25 07:21:27;;;;;;;2.03;1.90;;;10.10;1.00;;;;;;5071144;28;20464;-79
2022/12/25 07:23:55;;;;;;;1.90;1.80;;;10.10;1.00;;;;;;5071036;28;20460;-79
2022/12/25 07:26:23;;;;;;;1.97;1.87;;;10.10;1.00;;;;;;5073119;28;20476;-79
2022/12/25 07:28:51;;;;;;;2.53;2.40;;;10.10;1.00;;;;;;5072671;28;20489;-78
2022/12/25 07:31:19;;;;;;;2.27;2.17;;;10.10;1.00;;;;;;5071105;28;20870;-79
2022/12/25 07:33:52;;;;;;;2.10;2.00;;;10.10;1.00;;;;;;5071881;28;20817;-79
2022/12/25 07:36:20;;;;;;;2.23;2.13;;;10.10;1.00;;;;;;5072542;28;20477;-80
2022/12/25 07:38:49;;;;;;;2.10;2.00;;;10.20;1.00;;;;;;5070557;28;20482;-80
2022/12/25 07:41:18;;;;;;;1.80;1.70;;;10.20;1.00;;;;;;5070850;28;20452;-79
2022/12/25 07:43:49;;;;;;;1.80;1.80;;;10.20;1.00;;;;;;5072292;28;20466;-82
2022/12/25 07:46:17;;;;;;;1.97;1.87;;;10.20;1.00;;;;;;5070589;28;20501;-81
2022/12/25 07:48:46;;;;;;;1.93;1.83;;;10.20;1.00;;;;;;5070908;28;20466;-78
2022/12/25 07:51:16;;;;;;;1.90;1.80;;;10.20;1.00;;;;;;5069931;28;20643;-79
2022/12/25 07:53:44;;;;;;;2.00;1.90;;;10.10;1.00;;;;;;5071424;28;20493;-81
2022/12/25 07:56:14;;;;;;;2.07;1.93;;;10.10;1.00;;;;;;5069639;28;21023;-78
2022/12/25 07:58:43;;;;;;;2.20;2.10;;;10.20;1.00;;;;;;5071007;28;20482;-79
2022/12/25 08:01:15;;;;;;;1.93;1.83;;;10.20;1.00;;;;;;5070586;28;20541;-78
2022/12/25 08:03:48;;;;;;;2.20;2.00;;;10.20;1.00;;;;;;5071702;28;20513;-80
2022/12/25 08:06:18;;;;;;;2.17;2.07;;;10.30;1.00;;;;;;5072361;28;20463;-80
2022/12/25 08:08:46;;;;;;;2.33;2.23;;;10.30;1.00;;;;;;5071398;28;20477;-78
2022/12/25 08:11:15;;;;;;;2.30;2.20;;;10.30;1.00;;;;;;5070726;28;20502;-78
2022/12/25 08:13:43;;;;;;;2.43;2.33;;;10.30;1.00;;;;;;5069352;28;20583;-80
2022/12/25 08:16:12;;;;;;;2.40;2.30;;;10.30;1.00;;;;;;5069835;28;20457;-81
2022/12/25 08:18:41;;;;;;;2.40;2.30;;;10.40;1.00;;;;;;5071243;28;20474;-79
2022/12/25 08:21:13;;;;;;;2.17;2.07;;;10.30;1.00;;;;;;5070677;28;20504;-76
2022/12/25 08:23:44;;;;;;;2.30;2.20;;;10.40;1.00;;;;;;5070626;28;20468;-79
2022/12/25 08:26:14;;;;;;;2.33;2.23;;;10.50;1.00;;;;;;5069824;28;20472;-78
2022/12/25 08:28:42;;;;;;;2.80;2.70;;;10.50;1.00;;;;;;5070990;28;20517;-79
2022/12/25 08:31:13;;;;;;;2.70;2.50;;;10.50;1.00;;;;;;5066927;28;20451;-79
2022/12/25 08:33:42;;;;;;;2.30;2.20;;;10.40;1.00;;;;;;5068525;28;20460;-78
2022/12/25 08:36:12;;;;;;;2.37;2.20;;;10.50;1.00;;;;;;5070126;28;20966;-80
2022/12/25 08:38:42;;;;;;;2.17;2.07;;;10.50;1.00;;;;;;5068532;28;20518;-79
2022/12/25 08:41:11;;;;;;;3.50;2.50;;;10.50;1.00;;;;;;5067278;28;20467;-78
2022/12/25 08:43:39;;;;;;;2.90;2.70;;;10.70;1.00;;;;;;5070466;28;20447;-78
2022/12/25 08:46:08;;;;;;;3.20;3.03;;;10.70;1.00;;;;;;5069298;28;20485;-78
2022/12/25 08:48:37;;;;;;;3.70;3.50;;;10.90;1.00;;;;;;5069579;28;20471;-80
2022/12/25 08:51:10;;;;;;;2.47;2.37;;;10.80;1.00;;;;;;5067960;28;20458;-80
2022/12/25 08:53:38;;;;;;;2.70;2.60;;;10.80;1.00;;;;;;5069844;28;20445;-79
2022/12/25 08:56:09;;;;;;;3.47;3.27;;;10.90;1.00;;;;;;5067825;28;20465;-80
2022/12/25 08:58:38;;;;;;;3.10;2.90;;;10.80;1.00;;;;;;5069234;28;20494;-80
2022/12/25 09:01:06;;;;;;;2.90;2.70;;;10.80;1.00;;;;;;5068432;28;20448;-80
2022/12/25 09:03:35;;;;;;;3.10;3.00;;;10.80;1.00;;;;;;5057744;28;20970;-79
2022/12/25 09:06:04;;;;;;;3.20;3.00;;;10.90;1.00;;;;;;5067885;28;20541;-79
2022/12/25 09:08:32;;;;;;;2.80;2.70;;;11.00;1.00;;;;;;5069050;28;21178;-80
2022/12/25 09:11:02;;;;;;;3.87;3.27;;;11.10;1.00;;;;;;5067540;28;20457;-79
2022/12/25 09:13:32;;;;;;;4.10;3.90;;;11.20;1.00;;;;;;5066914;28;20992;-80
2022/12/25 09:16:04;;;;;;;7.87;7.27;;;11.30;1.00;;;;;;5068327;28;20478;-80
2022/12/25 09:18:33;;;;;;;4.23;4.03;;;11.50;1.00;;;;;;5069470;28;20447;-79
2022/12/25 09:21:02;;;;;;;3.50;3.40;;;11.50;1.00;;;;;;5067688;28;20462;-80
2022/12/25 09:23:31;;;;;;;3.63;3.43;;;11.50;1.00;;;;;;5068633;28;20516;-81
2022/12/25 09:26:00;;;;;;;4.30;4.10;;;11.50;1.00;;;;;;5067540;28;21021;-80
2022/12/25 09:28:28;;;;;;;3.70;3.60;;;11.60;1.00;;;;;;5068978;28;20561;-81
2022/12/25 09:30:58;;;;;;;3.37;3.27;;;11.70;1.00;;;;;;5068156;28;20450;-79
2022/12/25 09:33:27;;;;;;;4.00;3.60;;;11.70;1.00;;;;;;5067208;28;20459;-80
2022/12/25 09:35:56;;;;;;;3.83;3.63;;;11.70;1.00;;;;;;5067552;28;20485;-82
2022/12/25 09:38:25;;;;;;;4.50;4.30;;;11.90;1.00;;;;;;5076402;28;20461;-80
2022/12/25 09:40:59;;;;;;;5.50;5.20;;;12.00;1.00;;;;;;5067470;28;20546;-83
2022/12/25 09:43:30;;;;;;;4.10;3.90;;;12.20;99.90;;;;;;5066555;28;20452;-81
2022/12/25 09:46:02;;;;;;;5.00;4.70;;;12.40;1.00;;;;;;5065901;28;20809;-81
2022/12/25 09:48:33;;;;;;;4.73;4.53;;;12.60;1.00;;;;;;5068474;28;20963;-80
2022/12/25 09:51:06;;;;;;;4.67;4.50;;;12.60;99.90;;;;;;5068572;28;20464;-80
2022/12/25 09:53:38;;;;;;;4.80;4.50;;;12.70;1.00;;;;;;5067519;28;20462;-80
2022/12/25 09:56:11;;;;;;;4.23;4.03;;;12.90;99.90;;;;;;5066668;28;20465;-81
2022/12/25 09:58:39;;;;;;;4.60;4.40;;;12.90;1.00;;;;;;5069505;28;20479;-80
2022/12/25 10:01:26;;;;;;;4.50;4.30;;;13.20;12.80;;;;;;5068886;28;20456;-81
2022/12/25 10:04:19;;;;;;;7.20;4.40;;;13.50;99.90;;;;;;5066781;28;20479;-80
2022/12/25 10:06:59;;;;;;;3.90;3.80;;;13.70;91.70;;;;;;5068978;28;20466;-80
2022/12/25 10:09:48;;;;;;;4.10;4.00;;;14.00;1.00;;;;;;5059931;28;20869;-81
2022/12/25 10:12:32;;;;;;;4.23;4.03;;;14.30;1.00;;;;;;5067053;28;20961;-82
2022/12/25 10:15:32;;;;;;;3.90;3.70;;;14.60;1.00;;;;;;5066274;28;20983;-80
2022/12/25 10:18:24;;;;;;;4.97;4.77;;;15.00;99.90;;;;;;5067600;28;20538;-80
2022/12/25 10:20:55;;;;;;;4.80;4.60;;;15.20;1.00;;;;;;5067902;28;20462;-81
2022/12/25 10:23:28;;;;;;;4.23;4.10;;;15.30;99.90;;;;;;5066484;28;20856;-80
2022/12/25 10:25:56;;;;;;;4.40;4.20;;;15.50;99.90;;;;;;5067077;28;20439;-79
2022/12/25 10:28:29;;;;;;;3.80;3.70;;;15.60;99.90;;;;;;5066174;28;21028;-80
2022/12/25 10:31:02;;;;;;;3.90;3.70;;;15.50;99.90;;;;;;5065886;28;20521;-80
2022/12/25 10:33:31;;;;;;;5.40;5.13;;;15.60;99.90;;;;;;5067112;28;20506;-80
2022/12/25 10:36:00;;;;;;;3.80;3.50;;;15.40;99.90;;;;;;5064354;28;20934;-82
2022/12/25 10:38:28;;;;;;;4.10;3.80;;;15.30;99.90;;;;;;5065681;28;20489;-80
2022/12/25 10:41:09;;;;;;;4.47;4.27;;;15.60;99.90;;;;;;5067189;28;20467;-80
2022/12/25 10:43:43;;;;;;;4.00;3.70;;;15.70;99.90;;;;;;5059991;28;20628;-79
2022/12/25 10:46:14;;;;;;;3.93;3.63;;;15.80;99.90;;;;;;5067011;28;20496;-81
2022/12/25 10:48:47;;;;;;;4.40;4.10;;;15.90;99.90;;;;;;5067782;28;20563;-82
2022/12/25 10:51:27;;;;;;;4.63;4.43;;;15.80;99.90;;;;;;5067807;28;20456;-80
2022/12/25 10:53:56;;;;;;;4.13;3.93;;;15.60;99.90;;;;;;5067713;28;20442;-80
2022/12/25 10:56:24;;;;;;;119.03;69.60;;;15.30;99.90;;;;;;5070321;28;20457;-80
2022/12/25 10:59:04;;;;;;;21.33;16.30;;;15.30;1.00;;;;;;5059319;28;20469;-79
2022/12/25 11:01:32;;;;;;;5.40;4.87;;;15.00;1.00;;;;;;5068437;28;20933;-79
2022/12/25 11:04:02;;;;;;;3.47;3.33;;;14.90;99.90;;;;;;5069749;28;20449;-81
2022/12/25 11:06:33;;;;;;;3.87;3.67;;;14.80;1.00;;;;;;5069308;28;20992;-80
2022/12/25 11:09:02;;;;;;;4.37;4.17;;;14.70;1.00;;;;;;5086129;28;20481;-81
2022/12/25 11:11:31;;;;;;;5.23;4.90;;;14.80;99.90;;;;;;5069716;28;20442;-80
2022/12/25 11:14:01;;;;;;;10.53;9.40;;;14.90;99.90;;;;;;5070626;28;20446;-81
2022/12/25 11:16:31;;;;;;;3.83;3.63;;;15.10;1.00;;;;;;5070691;28;20469;-80
2022/12/25 11:19:02;;;;;;;4.00;3.90;;;15.60;1.00;;;;;;5068807;28;20477;-81
2022/12/25 11:21:31;;;;;;;3.20;3.10;;;15.60;99.90;;;;;;5070010;28;21031;-80
2022/12/25 11:24:02;;;;;;;3.77;3.57;;;15.50;1.00;;;;;;5070090;28;20451;-81
2022/12/25 11:26:36;;;;;;;3.47;3.37;;;15.40;1.00;;;;;;5070909;28;20475;-80
2022/12/25 11:29:23;;;;;;;3.87;3.73;;;15.40;1.00;;;;;;5069551;28;20487;-80
2022/12/25 11:31:54;;;;;;;3.63;3.53;;;15.50;1.00;;;;;;5069759;28;20512;-80
2022/12/25 11:34:30;;;;;;;3.30;3.20;;;15.70;1.00;;;;;;5068550;28;20976;-81
2022/12/25 11:37:01;;;;;;;3.40;3.30;;;15.60;1.00;;;;;;5069645;28;20465;-80
2022/12/25 11:39:31;;;;;;;4.07;3.73;;;15.70;1.00;;;;;;5070966;28;20478;-80
2022/12/25 11:42:05;;;;;;;3.40;3.30;;;15.70;1.00;;;;;;5071343;28;20462;-81
2022/12/25 11:44:40;;;;;;;3.30;3.20;;;15.50;1.00;;;;;;5069248;28;20514;-80
2022/12/25 11:47:17;;;;;;;2.93;2.83;;;15.60;1.00;;;;;;5071393;28;20950;-80
2022/12/25 11:49:51;;;;;;;3.03;2.83;;;15.50;1.00;;;;;;5071527;28;20497;-81
2022/12/25 11:52:31;;;;;;;2.83;2.73;;;15.40;1.00;;;;;;5071154;28;20453;-80
2022/12/25 11:55:05;;;;;;;2.83;2.70;;;15.40;1.00;;;;;;5068854;28;20516;-81
2022/12/25 11:57:35;;;;;;;2.97;2.83;;;15.40;1.00;;;;;;5071682;28;20449;-81
2022/12/25 12:00:08;;;;;;;3.00;2.90;;;15.40;28.00;;;;;;5071037;28;20485;-79
2022/12/25 12:02:42;;;;;;;3.17;2.97;;;15.40;33.20;;;;;;5069882;28;20455;-80
2022/12/25 12:05:21;;;;;;;3.30;3.00;;;15.50;1.00;;;;;;5071709;28;20533;-80
2022/12/25 12:07:54;;;;;;;2.80;2.70;;;15.50;1.00;;;;;;5071042;28;20442;-80
2022/12/25 12:10:31;;;;;;;3.30;3.10;;;15.40;1.00;;;;;;5068684;28;20477;-81
2022/12/25 12:13:12;;;;;;;2.97;2.87;;;15.50;1.00;;;;;;5062370;28;20915;-83
2022/12/25 12:15:43;;;;;;;2.90;2.80;;;15.30;1.00;;;;;;5069622;28;20874;-81
2022/12/25 12:18:21;;;;;;;2.67;2.57;;;15.30;1.00;;;;;;5070095;28;20445;-83
2022/12/25 12:21:02;;;;;;;3.27;3.17;;;15.50;1.00;;;;;;5071611;28;20451;-81
2022/12/25 12:23:34;;;;;;;2.70;2.60;;;15.60;1.00;;;;;;5071482;28;20486;-79
2022/12/25 12:26:03;;;;;;;3.10;3.00;;;15.60;99.90;;;;;;5070330;28;20475;-80
2022/12/25 12:28:44;;;;;;;2.53;2.43;;;15.80;1.00;;;;;;5070960;28;21435;-80
2022/12/25 12:31:13;;;;;;;3.00;2.90;;;15.70;1.00;;;;;;5071578;28;20443;-80
2022/12/25 12:33:47;;;;;;;3.90;3.60;;;15.60;99.90;;;;;;5070936;28;20462;-81
2022/12/25 12:36:21;;;;;;;2.70;2.60;;;15.70;1.00;;;;;;5071686;28;20450;-82
2022/12/25 12:39:02;;;;;;;2.67;2.57;;;15.80;1.00;;;;;;5068544;28;20479;-80
2022/12/25 12:41:45;;;;;;;2.70;2.60;;;16.00;99.90;;;;;;5070723;28;20545;-80
2022/12/25 12:44:16;;;;;;;3.00;2.90;;;16.00;99.90;;;;;;5069228;28;20463;-80
2022/12/25 12:46:52;;;;;;;2.70;2.60;;;16.00;99.90;;;;;;5072160;28;20442;-78
2022/12/25 12:49:25;;;;;;;2.30;2.20;;;16.00;99.90;;;;;;5069924;28;20490;-81
2022/12/25 12:52:06;;;;;;;2.47;2.37;;;16.00;99.90;;;;;;5062267;28;20461;-81
2022/12/25 12:54:54;;;;;;;2.40;2.30;;;16.00;99.90;;;;;;5069552;28;20536;-81
2022/12/25 12:57:28;;;;;;;2.43;2.33;;;16.00;99.90;;;;;;5067140;28;20452;-79
2022/12/25 12:59:58;;;;;;;2.50;2.40;;;16.00;99.90;;;;;;5071011;28;20459;-79
2022/12/25 13:02:55;;;;;;;2.33;2.23;;;15.90;99.90;;;;;;5069390;28;20452;-80
2022/12/25 13:05:34;;;;;;;2.23;2.10;;;15.90;99.90;;;;;;5070400;28;20463;-79
2022/12/25 13:08:14;;;;;;;2.37;2.27;;;16.00;99.90;;;;;;5070698;28;20448;-81
2022/12/25 13:10:48;;;;;;;2.13;2.03;;;15.90;99.90;;;;;;5069677;28;20459;-79
2022/12/25 13:13:21;;;;;;;2.60;1.90;;;15.90;99.90;;;;;;5067594;28;20443;-81
2022/12/25 13:15:51;;;;;;;2.00;1.90;;;15.90;99.90;;;;;;5067737;28;20466;-81
2022/12/25 13:18:20;;;;;;;2.30;2.20;;;15.90;99.90;;;;;;5070151;28;20460;-81
2022/12/25 13:20:55;;;;;;;2.17;2.07;;;15.90;99.90;;;;;;5069573;28;20475;-79
2022/12/25 13:23:27;;;;;;;1.80;1.70;;;15.90;99.90;;;;;;5061253;28;20458;-81
2022/12/25 13:25:57;;;;;;;1.90;1.80;;;16.00;99.90;;;;;;5068379;28;20484;-81
2022/12/25 13:28:27;;;;;;;1.77;1.70;;;16.00;99.90;;;;;;5059925;28;20453;-80
2022/12/25 13:31:03;;;;;;;2.10;2.00;;;16.00;99.90;;;;;;5070275;28;20957;-80
2022/12/25 13:33:31;;;;;;;2.00;1.80;;;15.90;99.90;;;;;;5070319;28;20443;-80
2022/12/25 13:35:59;;;;;;;1.70;1.70;;;15.90;99.90;;;;;;5068981;28;20454;-80
2022/12/25 13:38:29;;;;;;;1.80;1.70;;;15.90;99.90;;;;;;5068580;28;20482;-80
2022/12/25 13:43:45;;;;;;;2.57;2.37;;;15.80;99.90;;;;;;5070028;28;20531;-81
2022/12/25 13:46:15;;;;;;;1.70;1.70;;;15.80;99.90;;;;;;5067404;28;20465;-82
2022/12/25 13:48:43;;;;;;;2.43;2.10;;;15.80;99.90;;;;;;5068029;28;20969;-81
2022/12/25 13:51:16;;;;;;;2.00;1.90;;;15.90;99.90;;;;;;5069163;28;20454;-81
2022/12/25 13:53:45;;;;;;;2.80;2.60;;;15.80;99.90;;;;;;5060165;28;20505;-81
2022/12/25 13:56:15;;;;;;;2.87;2.67;;;15.80;99.90;;;;;;5067552;28;20954;-81
2022/12/25 13:58:47;;;;;;;1.70;1.70;;;15.80;99.90;;;;;;5065232;28;20983;-82
2022/12/25 14:01:17;;;;;;;1.90;1.80;;;15.70;99.90;;;;;;5084208;28;20460;-81
2022/12/25 14:03:47;;;;;;;2.20;2.10;;;15.60;99.90;;;;;;5068385;28;20491;-82
2022/12/25 14:06:19;;;;;;;1.87;1.77;;;15.60;99.90;;;;;;5068273;28;20443;-82
2022/12/25 14:08:49;;;;;;;1.93;1.80;;;15.50;1.00;;;;;;5066484;28;20458;-81
2022/12/25 14:11:21;;;;;;;2.20;2.10;;;15.40;1.00;;;;;;5068195;28;20968;-82
2022/12/25 14:13:52;;;;;;;1.70;1.60;;;15.40;1.00;;;;;;5067963;28;20484;-82
2022/12/25 14:16:22;;;;;;;1.90;1.80;;;15.40;1.00;;;;;;5069405;28;20442;-82
2022/12/25 14:18:52;;;;;;;6.70;6.20;;;15.40;1.00;;;;;;5068856;28;20493;-81
2022/12/25 14:21:28;;;;;;;2.37;2.17;;;15.30;1.00;;;;;;5066404;28;20456;-80
2022/12/25 14:23:57;;;;;;;1.90;1.80;;;15.20;26.70;;;;;;5068361;28;20464;-81
2022/12/25 14:26:27;;;;;;;2.57;2.37;;;15.20;48.10;;;;;;5068542;28;21027;-79
2022/12/25 14:29:02;;;;;;;2.00;1.90;;;15.20;99.90;;;;;;5069600;28;20475;-81
2022/12/25 14:31:31;;;;;;;3.10;2.90;;;15.10;99.90;;;;;;5067640;28;20457;-80
2022/12/25 14:34:00;;;;;;;6.00;3.60;;;15.10;99.90;;;;;;5069344;28;20498;-81
2022/12/25 14:36:30;;;;;;;5.60;5.10;;;15.10;99.90;;;;;;5070747;28;20445;-81
2022/12/25 14:39:02;;;;;;;3.47;3.27;;;15.00;99.90;;;;;;5069004;28;20519;-80
2022/12/25 14:41:37;;;;;;;3.63;3.43;;;14.90;1.00;;;;;;5068946;28;20478;-80
2022/12/25 14:44:24;;;;;;;2.87;2.77;;;14.90;1.00;;;;;;5066698;28;20494;-81
2022/12/25 14:47:03;;;;;;;2.67;2.47;;;14.90;1.00;;;;;;5069612;28;20499;-81
2022/12/25 14:49:32;;;;;;;2.10;2.00;;;14.90;19.80;;;;;;5069093;28;20571;-81
2022/12/25 14:52:08;;;;;;;2.00;1.90;;;14.80;1.00;;;;;;5070043;28;20541;-80
2022/12/25 14:54:37;;;;;;;2.10;2.00;;;14.70;99.90;;;;;;5067061;28;20452;-81
2022/12/25 14:57:06;;;;;;;2.10;2.00;;;14.70;99.90;;;;;;5069053;28;21289;-82
2022/12/25 14:59:34;;;;;;;2.80;2.60;;;14.60;1.00;;;;;;5069123;28;20568;-82
2022/12/25 15:02:02;;;;;;;2.37;2.27;;;14.60;99.90;;;;;;5070666;28;20450;-81
2022/12/25 15:04:31;;;;;;;2.00;1.90;;;14.60;1.00;;;;;;5065656;28;20550;-81
2022/12/25 15:07:05;;;;;;;3.50;2.03;;;14.50;1.00;;;;;;5064509;28;20450;-81
2022/12/25 15:09:36;;;;;;;2.17;2.07;;;14.50;1.00;;;;;;5069408;28;20551;-79